sensor_id;sensor_type;location;lat;lon;timestamp;P1;durP1;ratioP1;P2;durP2;ratioP2
22111;SDS011;11222;50.872;4.312;2023-04-30T00:02:21;17.05;;;12.52;;
22111;SDS011;11222;50.872;4.312;2023-04-30T00:04:46;18.90;;;12.45;;
22111;SDS011;11222;50.872;4.312;2023-04-30T00:07:12;17.17;;;12.30;;
22111;SDS011;11222;50.872;4.312;2023-04-30T00:09:38;19.77;;;11.20;;
22111;SDS011;11222;50.872;4.312;2023-04-30T00:12:04;16.00;;;11.63;;
22111;SDS011;11222;50.872;4.312;2023-04-30T00:14:30;14.52;;;10.82;;
22111;SDS011;11222;50.872;4.312;2023-04-30T00:16:55;15.77;;;11.00;;
22111;SDS011;11222;50.872;4.312;2023-04-30T00:19:22;14.80;;;10.48;;
22111;SDS011;11222;50.872;4.312;2023-04-30T00:21:48;12.73;;;10.45;;
22111;SDS011;11222;50.872;4.312;2023-04-30T00:24:13;13.63;;;9.60;;
22111;SDS011;11222;50.872;4.312;2023-04-30T00:26:39;14.10;;;9.68;;
22111;SDS011;11222;50.872;4.312;2023-04-30T00:29:05;12.77;;;9.63;;
22111;SDS011;11222;50.872;4.312;2023-04-30T00:31:31;12.20;;;9.52;;
22111;SDS011;11222;50.872;4.312;2023-04-30T00:33:57;12.60;;;9.23;;
22111;SDS011;11222;50.872;4.312;2023-04-30T00:36:22;11.85;;;8.90;;
22111;SDS011;11222;50.872;4.312;2023-04-30T00:38:48;14.63;;;9.30;;
22111;SDS011;11222;50.872;4.312;2023-04-30T00:41:15;14.13;;;8.90;;
22111;SDS011;11222;50.872;4.312;2023-04-30T00:43:40;13.48;;;8.90;;
22111;SDS011;11222;50.872;4.312;2023-04-30T00:46:06;10.80;;;8.65;;
22111;SDS011;11222;50.872;4.312;2023-04-30T00:48:32;13.80;;;8.95;;
22111;SDS011;11222;50.872;4.312;2023-04-30T00:50:57;10.38;;;8.45;;
22111;SDS011;11222;50.872;4.312;2023-04-30T00:53:23;14.63;;;9.00;;
22111;SDS011;11222;50.872;4.312;2023-04-30T00:55:50;10.43;;;8.27;;
22111;SDS011;11222;50.872;4.312;2023-04-30T00:58:16;16.70;;;9.27;;
22111;SDS011;11222;50.872;4.312;2023-04-30T01:00:42;11.48;;;8.60;;
22111;SDS011;11222;50.872;4.312;2023-04-30T01:03:11;13.70;;;9.48;;
22111;SDS011;11222;50.872;4.312;2023-04-30T01:05:38;13.18;;;8.32;;
22111;SDS011;11222;50.872;4.312;2023-04-30T01:08:05;13.57;;;9.35;;
22111;SDS011;11222;50.872;4.312;2023-04-30T01:10:32;10.93;;;8.00;;
22111;SDS011;11222;50.872;4.312;2023-04-30T01:13:10;12.15;;;8.65;;
22111;SDS011;11222;50.872;4.312;2023-04-30T01:15:58;13.50;;;8.75;;
22111;SDS011;11222;50.872;4.312;2023-04-30T01:18:50;13.60;;;8.75;;
22111;SDS011;11222;50.872;4.312;2023-04-30T01:21:20;11.00;;;8.80;;
22111;SDS011;11222;50.872;4.312;2023-04-30T01:23:54;11.70;;;9.30;;
22111;SDS011;11222;50.872;4.312;2023-04-30T01:29:42;12.70;;;9.80;;
22111;SDS011;11222;50.872;4.312;2023-04-30T01:32:09;11.63;;;8.93;;
22111;SDS011;11222;50.872;4.312;2023-04-30T01:34:35;14.60;;;9.52;;
22111;SDS011;11222;50.872;4.312;2023-04-30T01:40:23;12.48;;;10.00;;
22111;SDS011;11222;50.872;4.312;2023-04-30T01:43:08;15.63;;;13.32;;
22111;SDS011;11222;50.872;4.312;2023-04-30T01:48:21;15.60;;;11.23;;
22111;SDS011;11222;50.872;4.312;2023-04-30T01:50:57;15.70;;;10.23;;
22111;SDS011;11222;50.872;4.312;2023-04-30T01:53:39;13.10;;;10.05;;
22111;SDS011;11222;50.872;4.312;2023-04-30T01:56:09;13.98;;;9.88;;
22111;SDS011;11222;50.872;4.312;2023-04-30T01:58:39;13.50;;;9.93;;
22111;SDS011;11222;50.872;4.312;2023-04-30T02:01:06;14.23;;;10.38;;
22111;SDS011;11222;50.872;4.312;2023-04-30T02:03:31;16.42;;;14.23;;
22111;SDS011;11222;50.872;4.312;2023-04-30T02:05:57;19.23;;;16.92;;
22111;SDS011;11222;50.872;4.312;2023-04-30T02:08:23;21.08;;;15.60;;
22111;SDS011;11222;50.872;4.312;2023-04-30T02:10:49;34.10;;;30.50;;
22111;SDS011;11222;50.872;4.312;2023-04-30T02:13:14;17.77;;;15.88;;
22111;SDS011;11222;50.872;4.312;2023-04-30T02:15:41;39.00;;;31.83;;
22111;SDS011;11222;50.872;4.312;2023-04-30T02:18:06;61.20;;;48.35;;
22111;SDS011;11222;50.872;4.312;2023-04-30T02:20:32;49.00;;;39.38;;
22111;SDS011;11222;50.872;4.312;2023-04-30T02:22:58;61.67;;;41.00;;
22111;SDS011;11222;50.872;4.312;2023-04-30T02:25:23;56.75;;;35.22;;
22111;SDS011;11222;50.872;4.312;2023-04-30T02:27:50;22.30;;;15.02;;
22111;SDS011;11222;50.872;4.312;2023-04-30T02:30:16;107.43;;;87.78;;
22111;SDS011;11222;50.872;4.312;2023-04-30T02:32:43;21.83;;;19.52;;
22111;SDS011;11222;50.872;4.312;2023-04-30T02:35:09;27.10;;;21.33;;
22111;SDS011;11222;50.872;4.312;2023-04-30T02:37:34;18.48;;;14.18;;
22111;SDS011;11222;50.872;4.312;2023-04-30T02:40:00;21.00;;;17.02;;
22111;SDS011;11222;50.872;4.312;2023-04-30T02:42:26;18.83;;;16.10;;
22111;SDS011;11222;50.872;4.312;2023-04-30T02:44:51;11.77;;;8.77;;
22111;SDS011;11222;50.872;4.312;2023-04-30T02:47:17;42.38;;;33.78;;
22111;SDS011;11222;50.872;4.312;2023-04-30T02:49:42;23.73;;;19.98;;
22111;SDS011;11222;50.872;4.312;2023-04-30T02:52:08;21.75;;;17.52;;
22111;SDS011;11222;50.872;4.312;2023-04-30T02:54:34;21.90;;;16.48;;
22111;SDS011;11222;50.872;4.312;2023-04-30T02:57:00;18.05;;;11.68;;
22111;SDS011;11222;50.872;4.312;2023-04-30T02:59:25;16.13;;;12.60;;
22111;SDS011;11222;50.872;4.312;2023-04-30T03:01:51;21.90;;;16.17;;
22111;SDS011;11222;50.872;4.312;2023-04-30T03:04:16;13.30;;;8.90;;
22111;SDS011;11222;50.872;4.312;2023-04-30T03:06:42;14.27;;;9.25;;
22111;SDS011;11222;50.872;4.312;2023-04-30T03:09:08;20.40;;;16.75;;
22111;SDS011;11222;50.872;4.312;2023-04-30T03:11:33;17.25;;;12.68;;
22111;SDS011;11222;50.872;4.312;2023-04-30T03:14:01;17.88;;;13.80;;
22111;SDS011;11222;50.872;4.312;2023-04-30T03:16:28;18.02;;;12.55;;
22111;SDS011;11222;50.872;4.312;2023-04-30T03:18:55;19.70;;;15.25;;
22111;SDS011;11222;50.872;4.312;2023-04-30T03:21:21;14.32;;;11.27;;
22111;SDS011;11222;50.872;4.312;2023-04-30T03:23:46;18.95;;;11.93;;
22111;SDS011;11222;50.872;4.312;2023-04-30T03:26:12;17.92;;;11.85;;
22111;SDS011;11222;50.872;4.312;2023-04-30T03:28:38;13.52;;;10.63;;
22111;SDS011;11222;50.872;4.312;2023-04-30T03:31:04;15.30;;;11.05;;
22111;SDS011;11222;50.872;4.312;2023-04-30T03:33:30;17.27;;;12.00;;
22111;SDS011;11222;50.872;4.312;2023-04-30T03:35:56;13.80;;;10.80;;
22111;SDS011;11222;50.872;4.312;2023-04-30T03:38:22;23.05;;;15.57;;
22111;SDS011;11222;50.872;4.312;2023-04-30T03:40:48;17.63;;;12.52;;
22111;SDS011;11222;50.872;4.312;2023-04-30T03:43:14;17.70;;;12.88;;
22111;SDS011;11222;50.872;4.312;2023-04-30T03:45:39;16.70;;;11.98;;
22111;SDS011;11222;50.872;4.312;2023-04-30T03:48:05;18.48;;;12.27;;
22111;SDS011;11222;50.872;4.312;2023-04-30T03:50:30;17.02;;;14.02;;
22111;SDS011;11222;50.872;4.312;2023-04-30T03:52:56;16.08;;;12.23;;
22111;SDS011;11222;50.872;4.312;2023-04-30T03:55:22;18.20;;;12.23;;
22111;SDS011;11222;50.872;4.312;2023-04-30T03:57:47;17.13;;;12.55;;
22111;SDS011;11222;50.872;4.312;2023-04-30T04:00:13;14.90;;;11.60;;
22111;SDS011;11222;50.872;4.312;2023-04-30T04:02:39;24.10;;;16.75;;
22111;SDS011;11222;50.872;4.312;2023-04-30T04:05:05;18.73;;;13.48;;
22111;SDS011;11222;50.872;4.312;2023-04-30T04:07:31;19.70;;;13.65;;
22111;SDS011;11222;50.872;4.312;2023-04-30T04:09:56;19.08;;;14.05;;
22111;SDS011;11222;50.872;4.312;2023-04-30T04:12:22;19.38;;;12.80;;
22111;SDS011;11222;50.872;4.312;2023-04-30T04:14:47;19.35;;;12.75;;
22111;SDS011;11222;50.872;4.312;2023-04-30T04:17:13;18.48;;;12.27;;
22111;SDS011;11222;50.872;4.312;2023-04-30T04:19:39;16.73;;;12.40;;
22111;SDS011;11222;50.872;4.312;2023-04-30T04:22:05;18.77;;;14.95;;
22111;SDS011;11222;50.872;4.312;2023-04-30T04:24:31;26.83;;;20.30;;
22111;SDS011;11222;50.872;4.312;2023-04-30T04:26:57;20.77;;;14.93;;
22111;SDS011;11222;50.872;4.312;2023-04-30T04:29:23;17.00;;;11.68;;
22111;SDS011;11222;50.872;4.312;2023-04-30T04:31:49;17.90;;;12.52;;
22111;SDS011;11222;50.872;4.312;2023-04-30T04:34:15;20.67;;;14.70;;
22111;SDS011;11222;50.872;4.312;2023-04-30T04:36:41;23.73;;;16.25;;
22111;SDS011;11222;50.872;4.312;2023-04-30T04:39:07;24.38;;;17.75;;
22111;SDS011;11222;50.872;4.312;2023-04-30T04:41:33;16.88;;;13.75;;
22111;SDS011;11222;50.872;4.312;2023-04-30T04:44:00;20.83;;;14.57;;
22111;SDS011;11222;50.872;4.312;2023-04-30T04:46:27;22.40;;;16.25;;
22111;SDS011;11222;50.872;4.312;2023-04-30T04:48:53;19.80;;;13.23;;
22111;SDS011;11222;50.872;4.312;2023-04-30T04:51:19;20.63;;;13.88;;
22111;SDS011;11222;50.872;4.312;2023-04-30T04:53:45;19.20;;;14.50;;
22111;SDS011;11222;50.872;4.312;2023-04-30T04:56:11;18.27;;;12.25;;
22111;SDS011;11222;50.872;4.312;2023-04-30T04:58:37;18.40;;;13.15;;
22111;SDS011;11222;50.872;4.312;2023-04-30T05:01:03;20.90;;;13.70;;
22111;SDS011;11222;50.872;4.312;2023-04-30T05:03:30;18.05;;;12.07;;
22111;SDS011;11222;50.872;4.312;2023-04-30T05:05:56;22.20;;;14.00;;
22111;SDS011;11222;50.872;4.312;2023-04-30T05:08:22;21.02;;;13.05;;
22111;SDS011;11222;50.872;4.312;2023-04-30T05:10:48;19.17;;;13.23;;
22111;SDS011;11222;50.872;4.312;2023-04-30T05:13:14;19.13;;;12.57;;
22111;SDS011;11222;50.872;4.312;2023-04-30T05:15:40;17.60;;;12.10;;
22111;SDS011;11222;50.872;4.312;2023-04-30T05:18:06;19.65;;;12.50;;
22111;SDS011;11222;50.872;4.312;2023-04-30T05:20:32;18.27;;;12.13;;
22111;SDS011;11222;50.872;4.312;2023-04-30T05:22:58;15.95;;;12.10;;
22111;SDS011;11222;50.872;4.312;2023-04-30T05:25:23;16.48;;;12.88;;
22111;SDS011;11222;50.872;4.312;2023-04-30T05:27:49;18.65;;;12.50;;
22111;SDS011;11222;50.872;4.312;2023-04-30T05:30:15;20.92;;;13.02;;
22111;SDS011;11222;50.872;4.312;2023-04-30T05:32:41;18.67;;;12.88;;
22111;SDS011;11222;50.872;4.312;2023-04-30T05:35:06;18.83;;;13.40;;
22111;SDS011;11222;50.872;4.312;2023-04-30T05:37:33;20.35;;;14.07;;
22111;SDS011;11222;50.872;4.312;2023-04-30T05:39:58;21.80;;;13.48;;
22111;SDS011;11222;50.872;4.312;2023-04-30T05:42:24;21.15;;;13.93;;
22111;SDS011;11222;50.872;4.312;2023-04-30T05:44:50;21.55;;;14.30;;
22111;SDS011;11222;50.872;4.312;2023-04-30T05:47:15;18.27;;;13.30;;
22111;SDS011;11222;50.872;4.312;2023-04-30T05:49:41;19.25;;;14.50;;
22111;SDS011;11222;50.872;4.312;2023-04-30T05:52:07;19.95;;;14.40;;
22111;SDS011;11222;50.872;4.312;2023-04-30T05:54:33;23.50;;;15.50;;
22111;SDS011;11222;50.872;4.312;2023-04-30T05:56:58;20.00;;;15.45;;
22111;SDS011;11222;50.872;4.312;2023-04-30T05:59:24;20.85;;;14.25;;
22111;SDS011;11222;50.872;4.312;2023-04-30T06:01:50;19.05;;;14.40;;
22111;SDS011;11222;50.872;4.312;2023-04-30T06:04:16;23.08;;;15.27;;
22111;SDS011;11222;50.872;4.312;2023-04-30T06:06:42;19.85;;;14.77;;
22111;SDS011;11222;50.872;4.312;2023-04-30T06:09:07;20.33;;;14.57;;
22111;SDS011;11222;50.872;4.312;2023-04-30T06:11:34;20.95;;;14.88;;
22111;SDS011;11222;50.872;4.312;2023-04-30T06:14:01;23.50;;;14.85;;
22111;SDS011;11222;50.872;4.312;2023-04-30T06:16:27;23.15;;;15.73;;
22111;SDS011;11222;50.872;4.312;2023-04-30T06:18:53;21.67;;;15.98;;
22111;SDS011;11222;50.872;4.312;2023-04-30T06:21:19;21.30;;;15.35;;
22111;SDS011;11222;50.872;4.312;2023-04-30T06:23:44;21.35;;;14.73;;
22111;SDS011;11222;50.872;4.312;2023-04-30T06:26:10;21.60;;;16.10;;
22111;SDS011;11222;50.872;4.312;2023-04-30T06:28:38;23.02;;;15.73;;
22111;SDS011;11222;50.872;4.312;2023-04-30T06:31:04;22.73;;;16.77;;
22111;SDS011;11222;50.872;4.312;2023-04-30T06:33:30;24.88;;;16.70;;
22111;SDS011;11222;50.872;4.312;2023-04-30T06:35:56;22.13;;;16.60;;
22111;SDS011;11222;50.872;4.312;2023-04-30T06:38:22;21.73;;;15.85;;
22111;SDS011;11222;50.872;4.312;2023-04-30T06:40:47;26.15;;;17.48;;
22111;SDS011;11222;50.872;4.312;2023-04-30T06:43:13;22.35;;;16.58;;
22111;SDS011;11222;50.872;4.312;2023-04-30T06:45:39;22.00;;;16.95;;
22111;SDS011;11222;50.872;4.312;2023-04-30T06:48:05;27.33;;;17.02;;
22111;SDS011;11222;50.872;4.312;2023-04-30T06:50:30;24.05;;;16.40;;
22111;SDS011;11222;50.872;4.312;2023-04-30T06:52:56;24.60;;;18.17;;
22111;SDS011;11222;50.872;4.312;2023-04-30T06:55:22;23.08;;;17.05;;
22111;SDS011;11222;50.872;4.312;2023-04-30T06:57:48;24.88;;;17.85;;
22111;SDS011;11222;50.872;4.312;2023-04-30T07:00:14;26.88;;;19.02;;
22111;SDS011;11222;50.872;4.312;2023-04-30T07:02:40;24.67;;;17.50;;
22111;SDS011;11222;50.872;4.312;2023-04-30T07:05:05;22.67;;;17.48;;
22111;SDS011;11222;50.872;4.312;2023-04-30T07:07:31;23.15;;;17.42;;
22111;SDS011;11222;50.872;4.312;2023-04-30T07:09:57;25.65;;;17.75;;
22111;SDS011;11222;50.872;4.312;2023-04-30T07:12:23;25.88;;;18.35;;
22111;SDS011;11222;50.872;4.312;2023-04-30T07:14:49;26.33;;;19.15;;
22111;SDS011;11222;50.872;4.312;2023-04-30T07:17:14;25.65;;;19.05;;
22111;SDS011;11222;50.872;4.312;2023-04-30T07:19:40;27.10;;;18.17;;
22111;SDS011;11222;50.872;4.312;2023-04-30T07:22:06;23.70;;;18.45;;
22111;SDS011;11222;50.872;4.312;2023-04-30T07:24:32;25.75;;;17.85;;
22111;SDS011;11222;50.872;4.312;2023-04-30T07:26:58;24.55;;;18.10;;
22111;SDS011;11222;50.872;4.312;2023-04-30T07:29:26;24.25;;;18.98;;
22111;SDS011;11222;50.872;4.312;2023-04-30T07:31:53;25.95;;;19.30;;
22111;SDS011;11222;50.872;4.312;2023-04-30T07:34:19;23.73;;;18.13;;
22111;SDS011;11222;50.872;4.312;2023-04-30T07:36:46;27.50;;;18.58;;
22111;SDS011;11222;50.872;4.312;2023-04-30T07:39:12;26.00;;;19.17;;
22111;SDS011;11222;50.872;4.312;2023-04-30T07:41:38;24.98;;;19.15;;
22111;SDS011;11222;50.872;4.312;2023-04-30T07:44:04;24.05;;;18.98;;
22111;SDS011;11222;50.872;4.312;2023-04-30T07:46:30;26.02;;;19.13;;
22111;SDS011;11222;50.872;4.312;2023-04-30T07:48:56;24.83;;;19.35;;
22111;SDS011;11222;50.872;4.312;2023-04-30T07:51:22;27.77;;;20.50;;
22111;SDS011;11222;50.872;4.312;2023-04-30T07:53:47;23.42;;;18.08;;
22111;SDS011;11222;50.872;4.312;2023-04-30T07:56:13;25.75;;;19.10;;
22111;SDS011;11222;50.872;4.312;2023-04-30T07:58:39;26.00;;;18.77;;
22111;SDS011;11222;50.872;4.312;2023-04-30T08:01:05;27.88;;;19.77;;
22111;SDS011;11222;50.872;4.312;2023-04-30T08:03:31;22.95;;;18.10;;
22111;SDS011;11222;50.872;4.312;2023-04-30T08:05:57;23.48;;;18.08;;
22111;SDS011;11222;50.872;4.312;2023-04-30T08:08:23;21.88;;;17.65;;
22111;SDS011;11222;50.872;4.312;2023-04-30T08:10:48;23.38;;;18.58;;
22111;SDS011;11222;50.872;4.312;2023-04-30T08:13:14;22.35;;;17.77;;
22111;SDS011;11222;50.872;4.312;2023-04-30T08:15:40;23.08;;;17.52;;
22111;SDS011;11222;50.872;4.312;2023-04-30T08:18:06;20.92;;;17.20;;
22111;SDS011;11222;50.872;4.312;2023-04-30T08:20:32;19.40;;;17.10;;
22111;SDS011;11222;50.872;4.312;2023-04-30T08:22:57;21.20;;;16.95;;
22111;SDS011;11222;50.872;4.312;2023-04-30T08:25:23;22.95;;;17.10;;
22111;SDS011;11222;50.872;4.312;2023-04-30T08:27:49;20.75;;;17.80;;
22111;SDS011;11222;50.872;4.312;2023-04-30T08:30:15;22.85;;;18.15;;
22111;SDS011;11222;50.872;4.312;2023-04-30T08:32:41;20.20;;;17.83;;
22111;SDS011;11222;50.872;4.312;2023-04-30T08:35:06;19.67;;;17.48;;
22111;SDS011;11222;50.872;4.312;2023-04-30T08:37:33;19.40;;;16.75;;
22111;SDS011;11222;50.872;4.312;2023-04-30T08:39:59;20.45;;;17.58;;
22111;SDS011;11222;50.872;4.312;2023-04-30T08:42:25;19.30;;;16.75;;
22111;SDS011;11222;50.872;4.312;2023-04-30T08:44:59;18.45;;;16.48;;
22111;SDS011;11222;50.872;4.312;2023-04-30T08:47:26;20.67;;;16.67;;
22111;SDS011;11222;50.872;4.312;2023-04-30T08:49:52;18.70;;;16.33;;
22111;SDS011;11222;50.872;4.312;2023-04-30T08:52:18;20.20;;;16.35;;
22111;SDS011;11222;50.872;4.312;2023-04-30T08:54:44;17.67;;;15.77;;
22111;SDS011;11222;50.872;4.312;2023-04-30T08:57:11;18.17;;;15.82;;
22111;SDS011;11222;50.872;4.312;2023-04-30T08:59:37;16.98;;;14.75;;
22111;SDS011;11222;50.872;4.312;2023-04-30T09:02:03;17.23;;;15.55;;
22111;SDS011;11222;50.872;4.312;2023-04-30T09:04:29;16.13;;;14.52;;
22111;SDS011;11222;50.872;4.312;2023-04-30T09:06:55;16.73;;;13.98;;
22111;SDS011;11222;50.872;4.312;2023-04-30T09:09:26;17.00;;;14.90;;
22111;SDS011;11222;50.872;4.312;2023-04-30T09:11:52;17.75;;;15.38;;
22111;SDS011;11222;50.872;4.312;2023-04-30T09:14:34;18.60;;;16.65;;
22111;SDS011;11222;50.872;4.312;2023-04-30T09:17:04;17.63;;;15.82;;
22111;SDS011;11222;50.872;4.312;2023-04-30T09:19:31;17.55;;;15.50;;
22111;SDS011;11222;50.872;4.312;2023-04-30T09:21:56;14.18;;;12.77;;
22111;SDS011;11222;50.872;4.312;2023-04-30T09:24:23;14.80;;;12.68;;
22111;SDS011;11222;50.872;4.312;2023-04-30T09:26:49;17.00;;;15.10;;
22111;SDS011;11222;50.872;4.312;2023-04-30T09:29:15;16.83;;;14.77;;
22111;SDS011;11222;50.872;4.312;2023-04-30T09:31:46;15.68;;;12.85;;
22111;SDS011;11222;50.872;4.312;2023-04-30T09:34:14;14.80;;;12.93;;
22111;SDS011;11222;50.872;4.312;2023-04-30T09:36:52;16.73;;;13.55;;
22111;SDS011;11222;50.872;4.312;2023-04-30T09:39:18;15.80;;;14.13;;
22111;SDS011;11222;50.872;4.312;2023-04-30T09:41:45;14.88;;;13.38;;
22111;SDS011;11222;50.872;4.312;2023-04-30T09:44:30;15.13;;;13.63;;
22111;SDS011;11222;50.872;4.312;2023-04-30T09:46:59;15.00;;;13.43;;
22111;SDS011;11222;50.872;4.312;2023-04-30T09:49:25;15.07;;;13.52;;
22111;SDS011;11222;50.872;4.312;2023-04-30T09:51:54;16.75;;;14.82;;
22111;SDS011;11222;50.872;4.312;2023-04-30T09:54:25;15.80;;;13.10;;
22111;SDS011;11222;50.872;4.312;2023-04-30T09:56:55;15.02;;;13.43;;
22111;SDS011;11222;50.872;4.312;2023-04-30T09:59:22;16.33;;;13.90;;
22111;SDS011;11222;50.872;4.312;2023-04-30T10:01:59;15.75;;;14.15;;
22111;SDS011;11222;50.872;4.312;2023-04-30T10:04:36;15.65;;;13.50;;
22111;SDS011;11222;50.872;4.312;2023-04-30T10:07:05;15.57;;;14.00;;
22111;SDS011;11222;50.872;4.312;2023-04-30T10:09:47;15.25;;;13.65;;
22111;SDS011;11222;50.872;4.312;2023-04-30T10:12:35;16.08;;;13.40;;
22111;SDS011;11222;50.872;4.312;2023-04-30T10:15:25;14.63;;;13.15;;
22111;SDS011;11222;50.872;4.312;2023-04-30T10:17:56;14.98;;;13.57;;
22111;SDS011;11222;50.872;4.312;2023-04-30T10:20:26;14.63;;;13.18;;
22111;SDS011;11222;50.872;4.312;2023-04-30T10:22:52;13.73;;;12.43;;
22111;SDS011;11222;50.872;4.312;2023-04-30T10:25:18;16.55;;;12.95;;
22111;SDS011;11222;50.872;4.312;2023-04-30T10:27:44;15.70;;;13.32;;
22111;SDS011;11222;50.872;4.312;2023-04-30T10:30:10;13.73;;;12.32;;
22111;SDS011;11222;50.872;4.312;2023-04-30T10:32:46;13.02;;;11.68;;
22111;SDS011;11222;50.872;4.312;2023-04-30T10:35:32;12.85;;;11.52;;
22111;SDS011;11222;50.872;4.312;2023-04-30T10:38:14;13.23;;;11.82;;
22111;SDS011;11222;50.872;4.312;2023-04-30T10:40:48;12.90;;;11.63;;
22111;SDS011;11222;50.872;4.312;2023-04-30T10:43:18;12.95;;;11.65;;
22111;SDS011;11222;50.872;4.312;2023-04-30T10:45:46;11.80;;;10.73;;
22111;SDS011;11222;50.872;4.312;2023-04-30T10:48:13;11.27;;;10.23;;
22111;SDS011;11222;50.872;4.312;2023-04-30T10:50:49;11.15;;;10.15;;
22111;SDS011;11222;50.872;4.312;2023-04-30T10:53:24;10.65;;;9.65;;
22111;SDS011;11222;50.872;4.312;2023-04-30T10:55:56;11.60;;;10.40;;
22111;SDS011;11222;50.872;4.312;2023-04-30T10:58:31;12.55;;;10.50;;
22111;SDS011;11222;50.872;4.312;2023-04-30T11:01:13;11.27;;;10.02;;
22111;SDS011;11222;50.872;4.312;2023-04-30T11:03:42;10.68;;;9.55;;
22111;SDS011;11222;50.872;4.312;2023-04-30T11:06:28;10.45;;;9.45;;
22111;SDS011;11222;50.872;4.312;2023-04-30T11:09:40;9.75;;;8.85;;
22111;SDS011;11222;50.872;4.312;2023-04-30T11:12:11;11.63;;;10.25;;
22111;SDS011;11222;50.872;4.312;2023-04-30T11:14:52;12.10;;;10.18;;
22111;SDS011;11222;50.872;4.312;2023-04-30T11:17:27;11.68;;;9.77;;
22111;SDS011;11222;50.872;4.312;2023-04-30T11:19:54;12.27;;;11.02;;
22111;SDS011;11222;50.872;4.312;2023-04-30T11:22:25;10.77;;;9.82;;
22111;SDS011;11222;50.872;4.312;2023-04-30T11:25:00;10.63;;;9.07;;
22111;SDS011;11222;50.872;4.312;2023-04-30T11:27:36;9.75;;;8.75;;
22111;SDS011;11222;50.872;4.312;2023-04-30T11:30:09;9.30;;;8.30;;
22111;SDS011;11222;50.872;4.312;2023-04-30T11:32:42;8.70;;;7.88;;
22111;SDS011;11222;50.872;4.312;2023-04-30T11:35:11;13.93;;;8.57;;
22111;SDS011;11222;50.872;4.312;2023-04-30T11:37:39;7.85;;;7.05;;
22111;SDS011;11222;50.872;4.312;2023-04-30T11:40:08;7.80;;;7.05;;
22111;SDS011;11222;50.872;4.312;2023-04-30T11:42:35;7.45;;;6.75;;
22111;SDS011;11222;50.872;4.312;2023-04-30T11:47:39;8.02;;;7.32;;
22111;SDS011;11222;50.872;4.312;2023-04-30T11:50:22;8.20;;;7.30;;
22111;SDS011;11222;50.872;4.312;2023-04-30T11:52:53;7.28;;;6.68;;
22111;SDS011;11222;50.872;4.312;2023-04-30T11:55:22;7.63;;;6.93;;
22111;SDS011;11222;50.872;4.312;2023-04-30T11:57:50;8.95;;;7.22;;
22111;SDS011;11222;50.872;4.312;2023-04-30T12:00:19;8.43;;;7.72;;
22111;SDS011;11222;50.872;4.312;2023-04-30T12:02:46;9.48;;;7.85;;
22111;SDS011;11222;50.872;4.312;2023-04-30T12:05:19;8.57;;;7.78;;
22111;SDS011;11222;50.872;4.312;2023-04-30T12:07:47;9.65;;;8.80;;
22111;SDS011;11222;50.872;4.312;2023-04-30T12:10:18;9.88;;;7.65;;
22111;SDS011;11222;50.872;4.312;2023-04-30T12:12:45;8.02;;;7.22;;
22111;SDS011;11222;50.872;4.312;2023-04-30T12:17:38;8.52;;;6.93;;
22111;SDS011;11222;50.872;4.312;2023-04-30T12:20:05;7.88;;;6.63;;
22111;SDS011;11222;50.872;4.312;2023-04-30T12:22:32;9.38;;;6.72;;
22111;SDS011;11222;50.872;4.312;2023-04-30T12:24:58;10.30;;;7.85;;
22111;SDS011;11222;50.872;4.312;2023-04-30T12:27:25;8.88;;;7.05;;
22111;SDS011;11222;50.872;4.312;2023-04-30T12:29:51;8.25;;;7.45;;
22111;SDS011;11222;50.872;4.312;2023-04-30T12:32:20;8.05;;;6.85;;
22111;SDS011;11222;50.872;4.312;2023-04-30T12:34:46;9.35;;;8.00;;
22111;SDS011;11222;50.872;4.312;2023-04-30T12:37:15;9.57;;;8.13;;
22111;SDS011;11222;50.872;4.312;2023-04-30T12:39:41;8.65;;;7.80;;
22111;SDS011;11222;50.872;4.312;2023-04-30T12:42:07;9.63;;;7.93;;
22111;SDS011;11222;50.872;4.312;2023-04-30T12:44:40;10.65;;;7.70;;
22111;SDS011;11222;50.872;4.312;2023-04-30T12:47:08;9.82;;;8.73;;
22111;SDS011;11222;50.872;4.312;2023-04-30T12:49:34;9.93;;;7.95;;
22111;SDS011;11222;50.872;4.312;2023-04-30T12:52:04;9.25;;;8.30;;
22111;SDS011;11222;50.872;4.312;2023-04-30T12:54:33;10.07;;;7.72;;
22111;SDS011;11222;50.872;4.312;2023-04-30T12:57:01;12.00;;;8.98;;
22111;SDS011;11222;50.872;4.312;2023-04-30T12:59:32;7.93;;;7.20;;
22111;SDS011;11222;50.872;4.312;2023-04-30T13:04:43;21.65;;;16.98;;
22111;SDS011;11222;50.872;4.312;2023-04-30T13:07:09;14.70;;;11.40;;
22111;SDS011;11222;50.872;4.312;2023-04-30T13:09:35;11.15;;;9.25;;
22111;SDS011;11222;50.872;4.312;2023-04-30T13:12:02;13.23;;;10.95;;
22111;SDS011;11222;50.872;4.312;2023-04-30T13:14:29;9.63;;;8.63;;
22111;SDS011;11222;50.872;4.312;2023-04-30T13:16:56;8.20;;;6.28;;
22111;SDS011;11222;50.872;4.312;2023-04-30T13:19:22;7.28;;;6.55;;
22111;SDS011;11222;50.872;4.312;2023-04-30T13:21:47;9.23;;;7.18;;
22111;SDS011;11222;50.872;4.312;2023-04-30T13:24:13;9.77;;;8.02;;
22111;SDS011;11222;50.872;4.312;2023-04-30T13:26:40;10.55;;;8.23;;
22111;SDS011;11222;50.872;4.312;2023-04-30T13:29:05;7.10;;;6.45;;
22111;SDS011;11222;50.872;4.312;2023-04-30T13:31:31;18.17;;;13.85;;
22111;SDS011;11222;50.872;4.312;2023-04-30T13:33:57;6.70;;;6.00;;
22111;SDS011;11222;50.872;4.312;2023-04-30T13:36:22;10.48;;;7.88;;
22111;SDS011;11222;50.872;4.312;2023-04-30T13:38:48;7.60;;;6.82;;
22111;SDS011;11222;50.872;4.312;2023-04-30T13:41:14;7.28;;;6.57;;
22111;SDS011;11222;50.872;4.312;2023-04-30T13:43:40;7.88;;;7.07;;
22111;SDS011;11222;50.872;4.312;2023-04-30T13:46:09;7.63;;;5.90;;
22111;SDS011;11222;50.872;4.312;2023-04-30T13:48:35;5.78;;;5.28;;
22111;SDS011;11222;50.872;4.312;2023-04-30T13:51:01;5.80;;;5.30;;
22111;SDS011;11222;50.872;4.312;2023-04-30T13:53:27;6.45;;;5.82;;
22111;SDS011;11222;50.872;4.312;2023-04-30T13:55:53;5.75;;;5.10;;
22111;SDS011;11222;50.872;4.312;2023-04-30T13:58:19;5.97;;;5.47;;
22111;SDS011;11222;50.872;4.312;2023-04-30T14:00:45;6.88;;;6.22;;
22111;SDS011;11222;50.872;4.312;2023-04-30T14:03:10;6.10;;;5.60;;
22111;SDS011;11222;50.872;4.312;2023-04-30T14:05:37;8.15;;;5.32;;
22111;SDS011;11222;50.872;4.312;2023-04-30T14:08:03;8.82;;;7.13;;
22111;SDS011;11222;50.872;4.312;2023-04-30T14:10:30;7.32;;;6.13;;
22111;SDS011;11222;50.872;4.312;2023-04-30T14:12:56;6.28;;;5.70;;
22111;SDS011;11222;50.872;4.312;2023-04-30T14:15:22;5.80;;;5.28;;
22111;SDS011;11222;50.872;4.312;2023-04-30T14:17:48;4.95;;;4.60;;
22111;SDS011;11222;50.872;4.312;2023-04-30T14:20:14;4.95;;;4.55;;
22111;SDS011;11222;50.872;4.312;2023-04-30T14:22:40;5.53;;;5.07;;
22111;SDS011;11222;50.872;4.312;2023-04-30T14:25:06;5.25;;;4.70;;
22111;SDS011;11222;50.872;4.312;2023-04-30T14:27:33;5.90;;;5.30;;
22111;SDS011;11222;50.872;4.312;2023-04-30T14:29:59;5.90;;;5.40;;
22111;SDS011;11222;50.872;4.312;2023-04-30T14:32:25;6.10;;;5.60;;
22111;SDS011;11222;50.872;4.312;2023-04-30T14:34:52;6.68;;;6.00;;
22111;SDS011;11222;50.872;4.312;2023-04-30T14:37:18;6.45;;;5.60;;
22111;SDS011;11222;50.872;4.312;2023-04-30T14:39:44;6.55;;;5.90;;
22111;SDS011;11222;50.872;4.312;2023-04-30T14:42:10;5.97;;;5.40;;
22111;SDS011;11222;50.872;4.312;2023-04-30T14:44:36;6.03;;;4.43;;
22111;SDS011;11222;50.872;4.312;2023-04-30T14:47:02;5.80;;;4.65;;
22111;SDS011;11222;50.872;4.312;2023-04-30T14:49:28;5.50;;;5.00;;